sensor_id;sensor_type;location;lat;lon;timestamp;P1;durP1;ratioP1;P2;durP2;ratioP2
75655;SDS011;64252;51.094;13.714;2022-10-16T00:01:35;17.30;;;9.50;;
75655;SDS011;64252;51.094;13.714;2022-10-16T00:04:00;17.48;;;10.90;;
75655;SDS011;64252;51.094;13.714;2022-10-16T00:06:29;19.77;;;10.38;;
75655;SDS011;64252;51.094;13.714;2022-10-16T00:08:55;31.40;;;15.07;;
75655;SDS011;64252;51.094;13.714;2022-10-16T00:11:22;21.30;;;11.00;;
75655;SDS011;64252;51.094;13.714;2022-10-16T00:13:50;20.80;;;11.35;;
75655;SDS011;64252;51.094;13.714;2022-10-16T00:18:45;19.50;;;11.10;;
75655;SDS011;64252;51.094;13.714;2022-10-16T00:23:41;19.83;;;10.05;;
75655;SDS011;64252;51.094;13.714;2022-10-16T00:26:09;21.02;;;10.18;;
75655;SDS011;64252;51.094;13.714;2022-10-16T00:28:37;19.42;;;10.35;;
75655;SDS011;64252;51.094;13.714;2022-10-16T00:31:07;19.23;;;10.25;;
75655;SDS011;64252;51.094;13.714;2022-10-16T00:33:35;18.88;;;9.88;;
75655;SDS011;64252;51.094;13.714;2022-10-16T00:36:02;18.95;;;9.98;;
75655;SDS011;64252;51.094;13.714;2022-10-16T00:38:28;16.10;;;9.43;;
75655;SDS011;64252;51.094;13.714;2022-10-16T00:40:54;19.58;;;10.60;;
75655;SDS011;64252;51.094;13.714;2022-10-16T00:43:33;15.50;;;8.48;;
75655;SDS011;64252;51.094;13.714;2022-10-16T00:45:59;19.65;;;10.35;;
75655;SDS011;64252;51.094;13.714;2022-10-16T00:48:26;18.02;;;9.18;;
75655;SDS011;64252;51.094;13.714;2022-10-16T00:50:52;18.40;;;9.27;;
75655;SDS011;64252;51.094;13.714;2022-10-16T00:53:18;14.23;;;8.68;;
75655;SDS011;64252;51.094;13.714;2022-10-16T00:55:44;22.48;;;11.15;;
75655;SDS011;64252;51.094;13.714;2022-10-16T00:58:11;16.65;;;9.43;;
75655;SDS011;64252;51.094;13.714;2022-10-16T01:00:37;15.52;;;9.20;;
75655;SDS011;64252;51.094;13.714;2022-10-16T01:03:03;16.02;;;9.57;;
75655;SDS011;64252;51.094;13.714;2022-10-16T01:05:49;13.90;;;8.68;;
75655;SDS011;64252;51.094;13.714;2022-10-16T01:08:27;18.88;;;9.23;;
75655;SDS011;64252;51.094;13.714;2022-10-16T01:11:08;14.32;;;8.40;;
75655;SDS011;64252;51.094;13.714;2022-10-16T01:13:41;15.38;;;9.07;;
75655;SDS011;64252;51.094;13.714;2022-10-16T01:16:16;14.02;;;8.80;;
75655;SDS011;64252;51.094;13.714;2022-10-16T01:19:08;15.50;;;9.57;;
75655;SDS011;64252;51.094;13.714;2022-10-16T01:21:40;13.45;;;8.02;;
75655;SDS011;64252;51.094;13.714;2022-10-16T01:24:17;12.85;;;7.63;;
75655;SDS011;64252;51.094;13.714;2022-10-16T01:29:33;13.10;;;7.38;;
75655;SDS011;64252;51.094;13.714;2022-10-16T01:32:16;10.68;;;7.38;;
75655;SDS011;64252;51.094;13.714;2022-10-16T01:34:58;13.10;;;7.88;;
75655;SDS011;64252;51.094;13.714;2022-10-16T01:37:37;15.48;;;8.25;;
75655;SDS011;64252;51.094;13.714;2022-10-16T01:40:11;14.50;;;8.52;;
75655;SDS011;64252;51.094;13.714;2022-10-16T01:42:41;11.45;;;7.60;;
75655;SDS011;64252;51.094;13.714;2022-10-16T01:45:11;11.73;;;7.88;;
75655;SDS011;64252;51.094;13.714;2022-10-16T01:47:39;10.85;;;7.35;;
75655;SDS011;64252;51.094;13.714;2022-10-16T01:50:06;12.02;;;7.85;;
75655;SDS011;64252;51.094;13.714;2022-10-16T01:52:34;13.05;;;8.23;;
75655;SDS011;64252;51.094;13.714;2022-10-16T01:55:02;16.98;;;10.82;;
75655;SDS011;64252;51.094;13.714;2022-10-16T01:57:31;16.88;;;10.73;;
75655;SDS011;64252;51.094;13.714;2022-10-16T02:00:00;15.38;;;8.82;;
75655;SDS011;64252;51.094;13.714;2022-10-16T02:02:37;15.38;;;9.18;;
75655;SDS011;64252;51.094;13.714;2022-10-16T02:08:24;15.25;;;8.85;;
75655;SDS011;64252;51.094;13.714;2022-10-16T02:10:56;13.60;;;9.00;;
75655;SDS011;64252;51.094;13.714;2022-10-16T02:13:28;14.93;;;9.15;;
75655;SDS011;64252;51.094;13.714;2022-10-16T02:15:57;13.18;;;8.80;;
75655;SDS011;64252;51.094;13.714;2022-10-16T02:18:23;14.43;;;7.80;;
75655;SDS011;64252;51.094;13.714;2022-10-16T02:20:58;11.80;;;8.13;;
75655;SDS011;64252;51.094;13.714;2022-10-16T02:26:22;11.30;;;7.63;;
75655;SDS011;64252;51.094;13.714;2022-10-16T02:28:58;11.88;;;7.85;;
75655;SDS011;64252;51.094;13.714;2022-10-16T02:31:31;10.13;;;6.45;;
75655;SDS011;64252;51.094;13.714;2022-10-16T02:34:00;11.45;;;7.85;;
75655;SDS011;64252;51.094;13.714;2022-10-16T02:36:28;14.85;;;9.25;;
75655;SDS011;64252;51.094;13.714;2022-10-16T02:38:54;11.75;;;7.65;;
75655;SDS011;64252;51.094;13.714;2022-10-16T02:41:21;10.90;;;7.38;;
75655;SDS011;64252;51.094;13.714;2022-10-16T02:43:48;11.13;;;7.55;;
75655;SDS011;64252;51.094;13.714;2022-10-16T02:46:14;10.65;;;7.38;;
75655;SDS011;64252;51.094;13.714;2022-10-16T02:48:39;11.90;;;7.57;;
75655;SDS011;64252;51.094;13.714;2022-10-16T02:51:05;9.98;;;7.07;;
75655;SDS011;64252;51.094;13.714;2022-10-16T02:53:31;11.88;;;8.02;;
75655;SDS011;64252;51.094;13.714;2022-10-16T02:55:56;12.02;;;7.82;;
75655;SDS011;64252;51.094;13.714;2022-10-16T02:58:22;10.93;;;7.25;;
75655;SDS011;64252;51.094;13.714;2022-10-16T03:00:48;11.75;;;7.18;;
75655;SDS011;64252;51.094;13.714;2022-10-16T03:03:14;12.65;;;7.65;;
75655;SDS011;64252;51.094;13.714;2022-10-16T03:05:40;11.15;;;7.78;;
75655;SDS011;64252;51.094;13.714;2022-10-16T03:08:07;13.45;;;7.50;;
75655;SDS011;64252;51.094;13.714;2022-10-16T03:10:33;11.88;;;7.70;;
75655;SDS011;64252;51.094;13.714;2022-10-16T03:12:58;12.35;;;7.55;;
75655;SDS011;64252;51.094;13.714;2022-10-16T03:15:24;12.70;;;8.55;;
75655;SDS011;64252;51.094;13.714;2022-10-16T03:17:49;13.10;;;8.43;;
75655;SDS011;64252;51.094;13.714;2022-10-16T03:20:14;9.85;;;6.55;;
75655;SDS011;64252;51.094;13.714;2022-10-16T03:22:40;11.35;;;7.57;;
75655;SDS011;64252;51.094;13.714;2022-10-16T03:25:05;12.00;;;7.90;;
75655;SDS011;64252;51.094;13.714;2022-10-16T03:27:31;11.55;;;8.27;;
75655;SDS011;64252;51.094;13.714;2022-10-16T03:29:57;13.77;;;8.35;;
75655;SDS011;64252;51.094;13.714;2022-10-16T03:32:22;12.48;;;8.35;;
75655;SDS011;64252;51.094;13.714;2022-10-16T03:34:50;12.60;;;7.68;;
75655;SDS011;64252;51.094;13.714;2022-10-16T03:37:15;13.57;;;9.02;;
75655;SDS011;64252;51.094;13.714;2022-10-16T03:39:41;13.23;;;9.18;;
75655;SDS011;64252;51.094;13.714;2022-10-16T03:42:06;13.70;;;9.27;;
75655;SDS011;64252;51.094;13.714;2022-10-16T03:44:32;20.05;;;10.75;;
75655;SDS011;64252;51.094;13.714;2022-10-16T03:46:57;14.00;;;9.27;;
75655;SDS011;64252;51.094;13.714;2022-10-16T03:49:23;14.80;;;9.65;;
75655;SDS011;64252;51.094;13.714;2022-10-16T03:51:48;13.55;;;8.65;;
75655;SDS011;64252;51.094;13.714;2022-10-16T03:54:14;17.33;;;9.93;;
75655;SDS011;64252;51.094;13.714;2022-10-16T03:56:39;13.32;;;8.45;;
75655;SDS011;64252;51.094;13.714;2022-10-16T03:59:05;17.08;;;10.63;;
75655;SDS011;64252;51.094;13.714;2022-10-16T04:01:31;15.73;;;10.27;;
75655;SDS011;64252;51.094;13.714;2022-10-16T04:03:57;19.23;;;10.95;;
75655;SDS011;64252;51.094;13.714;2022-10-16T04:06:22;13.93;;;8.80;;
75655;SDS011;64252;51.094;13.714;2022-10-16T04:08:47;14.45;;;9.00;;
75655;SDS011;64252;51.094;13.714;2022-10-16T04:11:13;15.48;;;9.77;;
75655;SDS011;64252;51.094;13.714;2022-10-16T04:13:38;16.65;;;10.02;;
75655;SDS011;64252;51.094;13.714;2022-10-16T04:16:04;14.20;;;9.63;;
75655;SDS011;64252;51.094;13.714;2022-10-16T04:18:29;20.65;;;10.73;;
75655;SDS011;64252;51.094;13.714;2022-10-16T04:20:55;13.98;;;9.40;;
75655;SDS011;64252;51.094;13.714;2022-10-16T04:23:20;12.73;;;7.93;;
75655;SDS011;64252;51.094;13.714;2022-10-16T04:25:48;15.30;;;10.00;;
75655;SDS011;64252;51.094;13.714;2022-10-16T04:28:13;14.38;;;9.45;;
75655;SDS011;64252;51.094;13.714;2022-10-16T04:30:39;15.82;;;9.98;;
75655;SDS011;64252;51.094;13.714;2022-10-16T04:33:04;12.90;;;8.73;;
75655;SDS011;64252;51.094;13.714;2022-10-16T04:35:30;12.98;;;8.70;;
75655;SDS011;64252;51.094;13.714;2022-10-16T04:37:57;14.43;;;9.00;;
75655;SDS011;64252;51.094;13.714;2022-10-16T04:40:23;14.13;;;9.65;;
75655;SDS011;64252;51.094;13.714;2022-10-16T04:42:48;14.45;;;7.82;;
75655;SDS011;64252;51.094;13.714;2022-10-16T04:45:14;13.13;;;8.43;;
75655;SDS011;64252;51.094;13.714;2022-10-16T04:47:40;13.43;;;8.70;;
75655;SDS011;64252;51.094;13.714;2022-10-16T04:50:05;12.70;;;8.15;;
75655;SDS011;64252;51.094;13.714;2022-10-16T04:52:31;13.10;;;8.90;;
75655;SDS011;64252;51.094;13.714;2022-10-16T04:54:57;13.57;;;8.75;;
75655;SDS011;64252;51.094;13.714;2022-10-16T04:59:52;14.43;;;9.57;;
75655;SDS011;64252;51.094;13.714;2022-10-16T05:02:17;22.95;;;11.68;;
75655;SDS011;64252;51.094;13.714;2022-10-16T05:04:43;16.33;;;10.20;;
75655;SDS011;64252;51.094;13.714;2022-10-16T05:07:08;13.65;;;8.85;;
75655;SDS011;64252;51.094;13.714;2022-10-16T05:09:34;17.45;;;10.50;;
75655;SDS011;64252;51.094;13.714;2022-10-16T05:11:59;14.73;;;8.70;;
75655;SDS011;64252;51.094;13.714;2022-10-16T05:14:25;15.50;;;9.50;;
75655;SDS011;64252;51.094;13.714;2022-10-16T05:16:50;17.52;;;10.68;;
75655;SDS011;64252;51.094;13.714;2022-10-16T05:19:16;13.98;;;10.10;;
75655;SDS011;64252;51.094;13.714;2022-10-16T05:21:42;13.32;;;9.20;;
75655;SDS011;64252;51.094;13.714;2022-10-16T05:24:07;12.40;;;8.77;;
75655;SDS011;64252;51.094;13.714;2022-10-16T05:26:34;15.77;;;9.25;;
75655;SDS011;64252;51.094;13.714;2022-10-16T05:28:59;12.27;;;8.68;;
75655;SDS011;64252;51.094;13.714;2022-10-16T05:31:25;14.70;;;9.50;;
75655;SDS011;64252;51.094;13.714;2022-10-16T05:33:50;12.73;;;8.23;;
75655;SDS011;64252;51.094;13.714;2022-10-16T05:36:16;15.60;;;9.98;;
75655;SDS011;64252;51.094;13.714;2022-10-16T05:38:43;15.88;;;10.85;;
75655;SDS011;64252;51.094;13.714;2022-10-16T05:41:09;14.55;;;9.10;;
75655;SDS011;64252;51.094;13.714;2022-10-16T05:43:34;13.77;;;9.25;;
75655;SDS011;64252;51.094;13.714;2022-10-16T05:46:01;14.18;;;9.68;;
75655;SDS011;64252;51.094;13.714;2022-10-16T05:48:29;15.35;;;9.27;;
75655;SDS011;64252;51.094;13.714;2022-10-16T05:51:02;12.88;;;8.13;;
75655;SDS011;64252;51.094;13.714;2022-10-16T05:53:29;15.65;;;9.93;;
75655;SDS011;64252;51.094;13.714;2022-10-16T05:55:57;14.73;;;9.23;;
75655;SDS011;64252;51.094;13.714;2022-10-16T05:58:23;15.23;;;9.48;;
75655;SDS011;64252;51.094;13.714;2022-10-16T06:01:00;15.57;;;9.43;;
75655;SDS011;64252;51.094;13.714;2022-10-16T06:03:28;15.13;;;9.57;;
75655;SDS011;64252;51.094;13.714;2022-10-16T06:05:53;13.00;;;8.65;;
75655;SDS011;64252;51.094;13.714;2022-10-16T06:08:20;15.18;;;9.98;;
75655;SDS011;64252;51.094;13.714;2022-10-16T06:10:47;12.80;;;8.68;;
75655;SDS011;64252;51.094;13.714;2022-10-16T06:13:13;14.27;;;9.07;;
75655;SDS011;64252;51.094;13.714;2022-10-16T06:15:39;10.82;;;8.05;;
75655;SDS011;64252;51.094;13.714;2022-10-16T06:18:09;12.65;;;8.15;;
75655;SDS011;64252;51.094;13.714;2022-10-16T06:20:36;12.50;;;8.48;;
75655;SDS011;64252;51.094;13.714;2022-10-16T06:23:03;13.05;;;8.52;;
75655;SDS011;64252;51.094;13.714;2022-10-16T06:25:30;14.45;;;9.63;;
75655;SDS011;64252;51.094;13.714;2022-10-16T06:27:56;13.32;;;8.52;;
75655;SDS011;64252;51.094;13.714;2022-10-16T06:30:22;13.48;;;9.43;;
75655;SDS011;64252;51.094;13.714;2022-10-16T06:32:47;11.70;;;8.65;;
75655;SDS011;64252;51.094;13.714;2022-10-16T06:35:13;11.02;;;7.30;;
75655;SDS011;64252;51.094;13.714;2022-10-16T06:37:38;12.07;;;7.10;;
75655;SDS011;64252;51.094;13.714;2022-10-16T06:40:04;10.60;;;7.13;;
75655;SDS011;64252;51.094;13.714;2022-10-16T06:42:30;12.00;;;8.13;;
75655;SDS011;64252;51.094;13.714;2022-10-16T06:44:56;10.18;;;7.47;;
75655;SDS011;64252;51.094;13.714;2022-10-16T06:47:22;11.00;;;8.18;;
75655;SDS011;64252;51.094;13.714;2022-10-16T06:49:47;11.77;;;8.25;;
75655;SDS011;64252;51.094;13.714;2022-10-16T06:52:13;13.02;;;8.63;;
75655;SDS011;64252;51.094;13.714;2022-10-16T06:54:38;10.10;;;7.00;;
75655;SDS011;64252;51.094;13.714;2022-10-16T06:57:04;15.00;;;8.48;;
75655;SDS011;64252;51.094;13.714;2022-10-16T06:59:29;13.32;;;8.52;;
75655;SDS011;64252;51.094;13.714;2022-10-16T07:01:55;12.23;;;8.40;;
75655;SDS011;64252;51.094;13.714;2022-10-16T07:04:20;13.10;;;8.90;;
75655;SDS011;64252;51.094;13.714;2022-10-16T07:06:46;13.35;;;7.32;;
75655;SDS011;64252;51.094;13.714;2022-10-16T07:09:12;13.52;;;9.43;;
75655;SDS011;64252;51.094;13.714;2022-10-16T07:11:38;13.32;;;8.88;;
75655;SDS011;64252;51.094;13.714;2022-10-16T07:14:04;9.60;;;7.50;;
75655;SDS011;64252;51.094;13.714;2022-10-16T07:16:35;10.25;;;7.88;;
75655;SDS011;64252;51.094;13.714;2022-10-16T07:19:01;14.80;;;8.27;;
75655;SDS011;64252;51.094;13.714;2022-10-16T07:21:28;11.80;;;8.18;;
75655;SDS011;64252;51.094;13.714;2022-10-16T07:23:57;9.57;;;7.13;;
75655;SDS011;64252;51.094;13.714;2022-10-16T07:26:25;11.32;;;7.20;;
75655;SDS011;64252;51.094;13.714;2022-10-16T07:28:51;9.07;;;6.25;;
75655;SDS011;64252;51.094;13.714;2022-10-16T07:31:18;11.27;;;7.65;;
75655;SDS011;64252;51.094;13.714;2022-10-16T07:33:45;11.88;;;7.65;;
75655;SDS011;64252;51.094;13.714;2022-10-16T07:36:13;7.90;;;6.25;;
75655;SDS011;64252;51.094;13.714;2022-10-16T07:38:40;8.05;;;5.70;;
75655;SDS011;64252;51.094;13.714;2022-10-16T07:41:09;13.63;;;8.10;;
75655;SDS011;64252;51.094;13.714;2022-10-16T07:43:40;8.52;;;6.55;;
75655;SDS011;64252;51.094;13.714;2022-10-16T07:46:10;10.77;;;8.00;;
75655;SDS011;64252;51.094;13.714;2022-10-16T07:48:35;8.20;;;6.20;;
75655;SDS011;64252;51.094;13.714;2022-10-16T07:51:02;10.38;;;7.45;;
75655;SDS011;64252;51.094;13.714;2022-10-16T07:53:29;9.27;;;7.22;;
75655;SDS011;64252;51.094;13.714;2022-10-16T07:55:58;7.63;;;5.55;;
75655;SDS011;64252;51.094;13.714;2022-10-16T07:58:25;10.80;;;7.68;;
75655;SDS011;64252;51.094;13.714;2022-10-16T08:00:54;9.20;;;6.70;;
75655;SDS011;64252;51.094;13.714;2022-10-16T08:03:20;10.10;;;5.90;;
75655;SDS011;64252;51.094;13.714;2022-10-16T08:05:45;12.45;;;8.18;;
75655;SDS011;64252;51.094;13.714;2022-10-16T08:08:12;11.20;;;7.30;;
75655;SDS011;64252;51.094;13.714;2022-10-16T08:10:38;10.93;;;7.13;;
75655;SDS011;64252;51.094;13.714;2022-10-16T08:13:04;10.35;;;6.85;;
75655;SDS011;64252;51.094;13.714;2022-10-16T08:15:30;14.57;;;9.48;;
75655;SDS011;64252;51.094;13.714;2022-10-16T08:18:00;12.35;;;7.70;;
75655;SDS011;64252;51.094;13.714;2022-10-16T08:20:28;9.48;;;6.63;;
75655;SDS011;64252;51.094;13.714;2022-10-16T08:22:58;10.90;;;6.78;;
75655;SDS011;64252;51.094;13.714;2022-10-16T08:25:34;12.05;;;7.57;;
75655;SDS011;64252;51.094;13.714;2022-10-16T08:28:04;11.02;;;7.57;;
75655;SDS011;64252;51.094;13.714;2022-10-16T08:30:31;8.55;;;5.85;;
75655;SDS011;64252;51.094;13.714;2022-10-16T08:32:57;10.73;;;7.22;;
75655;SDS011;64252;51.094;13.714;2022-10-16T08:35:23;9.13;;;6.35;;
75655;SDS011;64252;51.094;13.714;2022-10-16T08:37:49;10.63;;;7.28;;
75655;SDS011;64252;51.094;13.714;2022-10-16T08:40:36;10.07;;;6.20;;
75655;SDS011;64252;51.094;13.714;2022-10-16T08:45:34;7.80;;;5.90;;
75655;SDS011;64252;51.094;13.714;2022-10-16T08:50:35;6.70;;;5.15;;
75655;SDS011;64252;51.094;13.714;2022-10-16T08:53:03;8.43;;;5.13;;
75655;SDS011;64252;51.094;13.714;2022-10-16T08:58:10;8.55;;;5.43;;
75655;SDS011;64252;51.094;13.714;2022-10-16T09:00:38;6.32;;;4.53;;
75655;SDS011;64252;51.094;13.714;2022-10-16T09:05:54;8.05;;;3.80;;
75655;SDS011;64252;51.094;13.714;2022-10-16T09:08:52;6.28;;;4.55;;
75655;SDS011;64252;51.094;13.714;2022-10-16T09:23:00;4.20;;;2.83;;
75655;SDS011;64252;51.094;13.714;2022-10-16T09:25:38;5.28;;;3.25;;
75655;SDS011;64252;51.094;13.714;2022-10-16T09:28:07;4.57;;;2.60;;
75655;SDS011;64252;51.094;13.714;2022-10-16T09:30:33;9.25;;;3.08;;
75655;SDS011;64252;51.094;13.714;2022-10-16T09:32:59;4.65;;;2.90;;
75655;SDS011;64252;51.094;13.714;2022-10-16T09:35:36;3.38;;;2.38;;
75655;SDS011;64252;51.094;13.714;2022-10-16T09:38:02;3.58;;;2.42;;
75655;SDS011;64252;51.094;13.714;2022-10-16T09:40:30;3.42;;;2.13;;
75655;SDS011;64252;51.094;13.714;2022-10-16T09:45:27;4.47;;;2.90;;
75655;SDS011;64252;51.094;13.714;2022-10-16T09:47:53;3.65;;;2.10;;
75655;SDS011;64252;51.094;13.714;2022-10-16T09:50:25;4.53;;;2.80;;
75655;SDS011;64252;51.094;13.714;2022-10-16T09:53:07;4.78;;;3.15;;
75655;SDS011;64252;51.094;13.714;2022-10-16T09:55:47;3.60;;;2.00;;
75655;SDS011;64252;51.094;13.714;2022-10-16T09:58:14;3.55;;;1.95;;
75655;SDS011;64252;51.094;13.714;2022-10-16T10:00:39;4.22;;;2.03;;
75655;SDS011;64252;51.094;13.714;2022-10-16T10:03:10;2.88;;;1.63;;
75655;SDS011;64252;51.094;13.714;2022-10-16T10:05:37;3.45;;;2.03;;
75655;SDS011;64252;51.094;13.714;2022-10-16T10:08:05;4.00;;;1.88;;
75655;SDS011;64252;51.094;13.714;2022-10-16T10:10:37;4.43;;;1.90;;
75655;SDS011;64252;51.094;13.714;2022-10-16T10:13:18;3.95;;;1.83;;
75655;SDS011;64252;51.094;13.714;2022-10-16T10:15:45;5.82;;;2.90;;
75655;SDS011;64252;51.094;13.714;2022-10-16T10:18:15;7.70;;;4.53;;
75655;SDS011;64252;51.094;13.714;2022-10-16T10:20:46;7.28;;;2.90;;
75655;SDS011;64252;51.094;13.714;2022-10-16T10:23:24;3.95;;;1.20;;
75655;SDS011;64252;51.094;13.714;2022-10-16T10:36:45;1.55;;;0.60;;
75655;SDS011;64252;51.094;13.714;2022-10-16T10:39:28;1.50;;;0.50;;
75655;SDS011;64252;51.094;13.714;2022-10-16T10:44:26;2.28;;;0.50;;
75655;SDS011;64252;51.094;13.714;2022-10-16T10:55:40;1.85;;;0.50;;
75655;SDS011;64252;51.094;13.714;2022-10-16T11:06:57;1.48;;;0.32;;
75655;SDS011;64252;51.094;13.714;2022-10-16T11:09:28;1.20;;;0.40;;
75655;SDS011;64252;51.094;13.714;2022-10-16T11:15:04;3.50;;;0.88;;
75655;SDS011;64252;51.094;13.714;2022-10-16T11:18:20;1.85;;;0.60;;
75655;SDS011;64252;51.094;13.714;2022-10-16T11:20:51;1.35;;;0.45;;
75655;SDS011;64252;51.094;13.714;2022-10-16T11:26:01;1.48;;;0.32;;
75655;SDS011;64252;51.094;13.714;2022-10-16T11:28:38;1.60;;;0.50;;
75655;SDS011;64252;51.094;13.714;2022-10-16T11:36:44;1.13;;;0.38;;
75655;SDS011;64252;51.094;13.714;2022-10-16T11:39:24;1.35;;;0.50;;
75655;SDS011;64252;51.094;13.714;2022-10-16T11:53:10;0.90;;;0.35;;
75655;SDS011;64252;51.094;13.714;2022-10-16T11:55:54;3.60;;;1.40;;
75655;SDS011;64252;51.094;13.714;2022-10-16T12:09:03;5.38;;;1.75;;
75655;SDS011;64252;51.094;13.714;2022-10-16T12:14:17;1.80;;;0.40;;
75655;SDS011;64252;51.094;13.714;2022-10-16T12:19:22;1.30;;;0.47;;
75655;SDS011;64252;51.094;13.714;2022-10-16T12:21:50;1.55;;;0.50;;
75655;SDS011;64252;51.094;13.714;2022-10-16T12:24:34;0.70;;;0.30;;
75655;SDS011;64252;51.094;13.714;2022-10-16T12:27:02;2.17;;;0.50;;
75655;SDS011;64252;51.094;13.714;2022-10-16T12:29:33;3.35;;;0.93;;
75655;SDS011;64252;51.094;13.714;2022-10-16T12:35:05;2.67;;;0.47;;
75655;SDS011;64252;51.094;13.714;2022-10-16T12:37:43;1.35;;;0.40;;
75655;SDS011;64252;51.094;13.714;2022-10-16T12:40:13;2.83;;;0.60;;
75655;SDS011;64252;51.094;13.714;2022-10-16T12:42:49;2.35;;;0.70;;
75655;SDS011;64252;51.094;13.714;2022-10-16T12:45:28;3.45;;;0.90;;
75655;SDS011;64252;51.094;13.714;2022-10-16T12:47:59;4.70;;;0.60;;
75655;SDS011;64252;51.094;13.714;2022-10-16T12:50:37;2.10;;;0.60;;
75655;SDS011;64252;51.094;13.714;2022-10-16T12:53:17;6.25;;;0.65;;
75655;SDS011;64252;51.094;13.714;2022-10-16T12:58:46;1.23;;;0.40;;
75655;SDS011;64252;51.094;13.714;2022-10-16T13:01:20;1.52;;;0.50;;
75655;SDS011;64252;51.094;13.714;2022-10-16T13:04:27;1.17;;;0.40;;
75655;SDS011;64252;51.094;13.714;2022-10-16T13:20:25;2.42;;;0.50;;
75655;SDS011;64252;51.094;13.714;2022-10-16T13:23:06;2.05;;;0.50;;
75655;SDS011;64252;51.094;13.714;2022-10-16T13:25:44;1.33;;;0.50;;
75655;SDS011;64252;51.094;13.714;2022-10-16T13:28:28;3.67;;;0.40;;
75655;SDS011;64252;51.094;13.714;2022-10-16T13:30:57;1.30;;;0.40;;
75655;SDS011;64252;51.094;13.714;2022-10-16T13:33:39;3.05;;;0.73;;
75655;SDS011;64252;51.094;13.714;2022-10-16T13:36:23;2.80;;;0.80;;
75655;SDS011;64252;51.094;13.714;2022-10-16T13:42:05;3.08;;;0.90;;
75655;SDS011;64252;51.094;13.714;2022-10-16T13:44:48;2.05;;;0.60;;
75655;SDS011;64252;51.094;13.714;2022-10-16T13:49:46;3.72;;;1.23;;
75655;SDS011;64252;51.094;13.714;2022-10-16T13:52:23;2.92;;;0.52;;
75655;SDS011;64252;51.094;13.714;2022-10-16T13:54:49;4.30;;;0.70;;
75655;SDS011;64252;51.094;13.714;2022-10-16T13:57:17;1.60;;;0.50;;
75655;SDS011;64252;51.094;13.714;2022-10-16T13:59:43;1.63;;;0.45;;
75655;SDS011;64252;51.094;13.714;2022-10-16T14:02:31;2.65;;;0.70;;
75655;SDS011;64252;51.094;13.714;2022-10-16T14:05:04;4.47;;;0.50;;
75655;SDS011;64252;51.094;13.714;2022-10-16T14:07:35;1.63;;;0.47;;
75655;SDS011;64252;51.094;13.714;2022-10-16T14:10:03;1.95;;;0.70;;
75655;SDS011;64252;51.094;13.714;2022-10-16T14:12:32;1.77;;;0.40;;
75655;SDS011;64252;51.094;13.714;2022-10-16T14:14:58;1.75;;;0.68;;
75655;SDS011;64252;51.094;13.714;2022-10-16T14:17:28;2.00;;;0.70;;
75655;SDS011;64252;51.094;13.714;2022-10-16T14:19:57;1.70;;;0.73;;
75655;SDS011;64252;51.094;13.714;2022-10-16T14:28:02;1.85;;;0.50;;
75655;SDS011;64252;51.094;13.714;2022-10-16T14:30:31;2.28;;;0.60;;
75655;SDS011;64252;51.094;13.714;2022-10-16T14:33:03;3.25;;;0.60;;
75655;SDS011;64252;51.094;13.714;2022-10-16T14:35:39;4.53;;;1.20;;
75655;SDS011;64252;51.094;13.714;2022-10-16T14:38:06;2.25;;;0.90;;
75655;SDS011;64252;51.094;13.714;2022-10-16T14:40:45;1.75;;;0.68;;
75655;SDS011;64252;51.094;13.714;2022-10-16T14:45:59;2.13;;;0.73;;
75655;SDS011;64252;51.094;13.714;2022-10-16T14:48:25;3.08;;;0.77;;
75655;SDS011;64252;51.094;13.714;2022-10-16T14:50:51;1.77;;;0.70;;
75655;SDS011;64252;51.094;13.714;2022-10-16T14:53:16;3.78;;;1.80;;
75655;SDS011;64252;51.094;13.714;2022-10-16T14:55:42;3.90;;;2.00;;
75655;SDS011;64252;51.094;13.714;2022-10-16T14:58:18;3.03;;;1.42;;
75655;SDS011;64252;51.094;13.714;2022-10-16T15:00:47;2.90;;;1.00;;
75655;SDS011;64252;51.094;13.714;2022-10-16T15:03:12;3.40;;;1.10;;
75655;SDS011;64252;51.094;13.714;2022-10-16T15:05:38;3.70;;;1.15;;
75655;SDS011;64252;51.094;13.714;2022-10-16T15:08:04;3.03;;;1.00;;
75655;SDS011;64252;51.094;13.714;2022-10-16T15:10:33;3.13;;;1.10;;
75655;SDS011;64252;51.094;13.714;2022-10-16T15:13:03;2.30;;;0.80;;
75655;SDS011;64252;51.094;13.714;2022-10-16T15:15:37;2.17;;;0.88;;
75655;SDS011;64252;51.094;13.714;2022-10-16T15:18:05;3.25;;;1.00;;
75655;SDS011;64252;51.094;13.714;2022-10-16T15:20:32;2.65;;;0.80;;
75655;SDS011;64252;51.094;13.714;2022-10-16T15:23:09;4.18;;;1.10;;
75655;SDS011;64252;51.094;13.714;2022-10-16T15:25:41;1.83;;;0.70;;
75655;SDS011;64252;51.094;13.714;2022-10-16T15:28:07;2.25;;;0.95;;
75655;SDS011;64252;51.094;13.714;2022-10-16T15:30:33;3.05;;;1.02;;
75655;SDS011;64252;51.094;13.714;2022-10-16T15:33:00;5.82;;;3.28;;
75655;SDS011;64252;51.094;13.714;2022-10-16T15:35:26;7.45;;;4.30;;
75655;SDS011;64252;51.094;13.714;2022-10-16T15:37:51;6.05;;;2.90;;
75655;SDS011;64252;51.094;13.714;2022-10-16T15:40:17;5.80;;;3.00;;
75655;SDS011;64252;51.094;13.714;2022-10-16T15:42:44;7.75;;;3.10;;
75655;SDS011;64252;51.094;13.714;2022-10-16T15:45:10;5.82;;;2.22;;
75655;SDS011;64252;51.094;13.714;2022-10-16T15:47:37;5.65;;;2.28;;
75655;SDS011;64252;51.094;13.714;2022-10-16T15:50:03;4.68;;;2.22;;
75655;SDS011;64252;51.094;13.714;2022-10-16T15:52:29;4.47;;;1.98;;
75655;SDS011;64252;51.094;13.714;2022-10-16T15:54:57;3.75;;;2.00;;
75655;SDS011;64252;51.094;13.714;2022-10-16T15:57:23;6.63;;;2.40;;
75655;SDS011;64252;51.094;13.714;2022-10-16T15:59:49;4.25;;;2.13;;
75655;SDS011;64252;51.094;13.714;2022-10-16T16:02:15;3.88;;;1.65;;
75655;SDS011;64252;51.094;13.714;2022-10-16T16:04:41;3.38;;;1.45;;
75655;SDS011;64252;51.094;13.714;2022-10-16T16:07:08;4.95;;;1.58;;
75655;SDS011;64252;51.094;13.714;2022-10-16T16:09:34;5.40;;;3.03;;
75655;SDS011;64252;51.094;13.714;2022-10-16T16:12:00;6.00;;;2.63;;
75655;SDS011;64252;51.094;13.714;2022-10-16T16:14:26;6.80;;;2.85;;
75655;SDS011;64252;51.094;13.714;2022-10-16T16:16:53;5.35;;;3.13;;
75655;SDS011;64252;51.094;13.714;2022-10-16T16:19:20;5.63;;;3.15;;
75655;SDS011;64252;51.094;13.714;2022-10-16T16:21:49;7.57;;;3.78;;
75655;SDS011;64252;51.094;13.714;2022-10-16T16:24:15;5.18;;;2.90;;
75655;SDS011;64252;51.094;13.714;2022-10-16T16:26:41;6.45;;;3.22;;
75655;SDS011;64252;51.094;13.714;2022-10-16T16:29:09;5.53;;;2.80;;
75655;SDS011;64252;51.094;13.714;2022-10-16T16:31:38;8.57;;;3.00;;
75655;SDS011;64252;51.094;13.714;2022-10-16T16:34:04;5.28;;;2.67;;
75655;SDS011;64252;51.094;13.714;2022-10-16T16:36:30;5.70;;;2.90;;
75655;SDS011;64252;51.094;13.714;2022-10-16T16:38:57;5.95;;;2.67;;
75655;SDS011;64252;51.094;13.714;2022-10-16T16:41:24;3.85;;;2.10;;
75655;SDS011;64252;51.094;13.714;2022-10-16T16:43:55;7.50;;;2.92;;
75655;SDS011;64252;51.094;13.714;2022-10-16T16:46:25;4.57;;;2.40;;
75655;SDS011;64252;51.094;13.714;2022-10-16T16:48:51;5.95;;;2.58;;
75655;SDS011;64252;51.094;13.714;2022-10-16T16:51:19;5.03;;;3.00;;
75655;SDS011;64252;51.094;13.714;2022-10-16T16:53:46;5.10;;;2.80;;
75655;SDS011;64252;51.094;13.714;2022-10-16T16:58:41;4.00;;;2.58;;
75655;SDS011;64252;51.094;13.714;2022-10-16T17:01:09;6.18;;;2.88;;
75655;SDS011;64252;51.094;13.714;2022-10-16T17:03:34;8.35;;;2.97;;